createdAt,value
2019-02-06T00:01:41.933Z,15.83
2019-02-06T00:04:09.453Z,15.38
2019-02-06T00:06:37.004Z,17.67
2019-02-06T00:09:07.599Z,16.20
2019-02-06T00:11:35.382Z,16.00
2019-02-06T00:14:03.116Z,16.90
2019-02-06T00:16:30.575Z,17.52
2019-02-06T00:18:58.067Z,15.98
2019-02-06T00:21:25.547Z,15.40
2019-02-06T00:23:53.439Z,17.40
2019-02-06T00:26:20.931Z,18.35
2019-02-06T00:28:48.423Z,16.77
2019-02-06T00:31:15.966Z,17.23
2019-02-06T00:33:43.477Z,18.67
2019-02-06T00:36:10.966Z,17.02
2019-02-06T00:38:38.438Z,16.07
2019-02-06T00:41:06.249Z,16.07
2019-02-06T00:43:33.784Z,16.73
2019-02-06T00:46:01.421Z,14.15
2019-02-06T00:48:28.945Z,17.50
2019-02-06T00:50:56.448Z,16.30
2019-02-06T00:53:23.950Z,17.57
2019-02-06T00:55:51.421Z,15.75
2019-02-06T00:58:19.329Z,15.78
2019-02-06T01:00:46.885Z,15.75
2019-02-06T01:03:15.162Z,17.77
2019-02-06T01:05:42.749Z,15.98
2019-02-06T01:08:10.593Z,17.50
2019-02-06T01:10:38.049Z,16.40
2019-02-06T01:13:05.623Z,16.45
2019-02-06T01:15:33.107Z,16.87
2019-02-06T01:18:00.604Z,15.80
2019-02-06T01:20:28.130Z,15.23
2019-02-06T01:22:55.664Z,14.38
2019-02-06T01:25:23.164Z,17.80
2019-02-06T01:27:50.671Z,14.83
2019-02-06T01:30:20.840Z,17.37
2019-02-06T01:32:48.352Z,16.95
2019-02-06T01:35:16.149Z,17.55
2019-02-06T01:37:43.674Z,15.88
2019-02-06T01:40:15.471Z,14.43
2019-02-06T01:42:43.014Z,16.12
2019-02-06T01:45:12.372Z,15.30
2019-02-06T01:47:39.910Z,16.20
2019-02-06T01:50:09.974Z,16.50
2019-02-06T01:52:37.651Z,15.78
2019-02-06T01:55:06.230Z,15.13
2019-02-06T01:57:33.803Z,15.98
2019-02-06T02:00:01.270Z,16.42
2019-02-06T02:02:28.752Z,15.48
2019-02-06T02:04:56.243Z,15.03
2019-02-06T02:07:23.719Z,17.02
2019-02-06T02:09:51.595Z,15.93
2019-02-06T02:12:19.134Z,15.20
2019-02-06T02:14:46.595Z,16.85
2019-02-06T02:17:14.069Z,14.85
2019-02-06T02:19:41.651Z,15.15
2019-02-06T02:22:09.133Z,14.68
2019-02-06T02:24:36.606Z,16.93
2019-02-06T02:27:04.505Z,14.55
2019-02-06T02:29:31.987Z,14.03
2019-02-06T02:31:59.549Z,13.83
2019-02-06T02:34:27.088Z,15.75
2019-02-06T02:36:54.552Z,14.87
2019-02-06T02:39:22.030Z,14.95
2019-02-06T02:41:49.540Z,16.07
2019-02-06T02:44:17.313Z,15.35
2019-02-06T02:46:44.776Z,13.98
2019-02-06T02:49:12.282Z,13.20
2019-02-06T02:51:39.789Z,13.38
2019-02-06T02:54:07.574Z,13.58
2019-02-06T02:56:35.048Z,12.95
2019-02-06T02:59:02.565Z,14.47
2019-02-06T03:01:31.668Z,15.23
2019-02-06T03:04:03.734Z,14.98
2019-02-06T03:06:31.259Z,15.38
2019-02-06T03:08:58.731Z,13.90
2019-02-06T03:11:26.231Z,14.15
2019-02-06T03:13:53.691Z,14.30
2019-02-06T03:16:21.176Z,14.10
2019-02-06T03:18:48.955Z,13.60
2019-02-06T03:21:16.425Z,14.00
2019-02-06T03:23:44.006Z,13.08
2019-02-06T03:26:11.468Z,14.28
2019-02-06T03:28:38.941Z,12.65
2019-02-06T03:31:06.429Z,13.93
2019-02-06T03:33:33.978Z,14.07
2019-02-06T03:36:01.831Z,12.78
2019-02-06T03:38:29.352Z,13.72
2019-02-06T03:40:56.813Z,13.13
2019-02-06T03:43:24.278Z,12.45
2019-02-06T03:45:51.789Z,12.88
2019-02-06T03:48:19.250Z,12.23
2019-02-06T03:50:46.729Z,13.53
2019-02-06T03:53:14.243Z,13.53
2019-02-06T03:55:41.914Z,13.10
2019-02-06T03:58:09.308Z,14.18
2019-02-06T04:00:36.803Z,13.18
2019-02-06T04:03:04.371Z,13.25
2019-02-06T04:05:31.863Z,12.93
2019-02-06T04:07:59.360Z,12.90
2019-02-06T04:10:26.836Z,13.68
2019-02-06T04:12:54.612Z,12.70
2019-02-06T04:15:22.108Z,13.38
2019-02-06T04:17:49.584Z,12.80
2019-02-06T04:20:17.498Z,12.75
2019-02-06T04:22:44.960Z,12.43
2019-02-06T04:25:13.576Z,12.55
2019-02-06T04:27:41.033Z,13.25
2019-02-06T04:30:10.683Z,13.68
2019-02-06T04:32:38.294Z,12.10
2019-02-06T04:35:07.483Z,12.13
2019-02-06T04:37:34.954Z,12.40
2019-02-06T04:40:02.451Z,12.70
2019-02-06T04:42:29.851Z,13.32
2019-02-06T04:44:57.319Z,11.30
2019-02-06T04:47:25.100Z,12.35
2019-02-06T04:49:52.568Z,13.38
2019-02-06T04:52:20.058Z,13.08
2019-02-06T04:54:47.518Z,13.93
2019-02-06T04:57:14.993Z,10.60
2019-02-06T04:59:42.490Z,11.03
2019-02-06T05:02:09.971Z,11.10
2019-02-06T05:04:37.706Z,12.40
2019-02-06T05:07:05.198Z,12.65
2019-02-06T05:09:32.683Z,11.70
2019-02-06T05:12:00.145Z,12.10
2019-02-06T05:14:27.642Z,12.78
2019-02-06T05:16:55.104Z,11.97
2019-02-06T05:19:22.622Z,11.43
2019-02-06T05:21:50.079Z,11.80
2019-02-06T05:24:17.765Z,11.30
2019-02-06T05:26:45.277Z,10.25
2019-02-06T05:29:12.728Z,11.68
2019-02-06T05:31:40.198Z,14.65
2019-02-06T05:34:07.711Z,12.35
2019-02-06T05:36:35.185Z,13.03
2019-02-06T05:39:03.018Z,12.07
2019-02-06T05:41:30.699Z,12.53
2019-02-06T05:43:58.189Z,11.48
2019-02-06T05:46:25.666Z,12.20
2019-02-06T05:48:53.154Z,12.05
2019-02-06T05:51:20.661Z,11.00
2019-02-06T05:53:48.126Z,11.68
2019-02-06T05:56:15.683Z,11.88
2019-02-06T05:58:43.319Z,11.48
2019-02-06T06:01:11.170Z,11.90
2019-02-06T06:03:38.632Z,11.20
2019-02-06T06:06:06.144Z,10.10
2019-02-06T06:08:33.616Z,10.55
2019-02-06T06:11:01.080Z,12.20
2019-02-06T06:13:28.577Z,13.20
2019-02-06T06:15:56.028Z,11.43
2019-02-06T06:18:23.542Z,13.00
2019-02-06T06:20:51.299Z,12.37
2019-02-06T06:23:18.770Z,11.65
2019-02-06T06:25:46.268Z,11.33
2019-02-06T06:28:13.747Z,13.65
2019-02-06T06:30:41.275Z,11.65
2019-02-06T06:33:08.773Z,11.33
2019-02-06T06:35:36.244Z,12.60
2019-02-06T06:38:03.895Z,12.18
2019-02-06T06:40:31.372Z,12.58
2019-02-06T06:42:58.849Z,13.28
2019-02-06T06:45:26.311Z,12.53
2019-02-06T06:47:53.799Z,12.73
2019-02-06T06:50:22.170Z,11.60
2019-02-06T06:52:49.640Z,13.28
2019-02-06T06:55:17.128Z,12.33
2019-02-06T06:57:45.100Z,11.70
2019-02-06T07:00:14.375Z,13.10
2019-02-06T07:02:41.856Z,11.43
2019-02-06T07:05:10.571Z,12.28
2019-02-06T07:07:38.024Z,11.68
2019-02-06T07:10:07.115Z,12.15
2019-02-06T07:12:34.747Z,11.20
2019-02-06T07:15:02.219Z,13.38
2019-02-06T07:17:29.696Z,12.93
2019-02-06T07:19:57.207Z,11.63
2019-02-06T07:22:24.776Z,12.15
2019-02-06T07:24:52.332Z,12.13
2019-02-06T07:27:21.053Z,12.33
2019-02-06T07:29:48.696Z,11.60
2019-02-06T07:32:16.266Z,12.13
2019-02-06T07:34:43.824Z,12.80
2019-02-06T07:37:11.308Z,13.00
2019-02-06T07:39:38.772Z,13.32
2019-02-06T07:42:06.358Z,13.93
2019-02-06T07:44:33.902Z,13.45
2019-02-06T07:47:01.397Z,11.95
2019-02-06T07:49:29.175Z,13.95
2019-02-06T07:51:56.747Z,12.95
2019-02-06T07:54:24.307Z,13.10
2019-02-06T07:56:51.790Z,13.65
2019-02-06T07:59:19.338Z,12.95
2019-02-06T08:01:46.880Z,11.83
2019-02-06T08:04:14.417Z,12.40
2019-02-06T08:06:42.204Z,15.83
2019-02-06T08:09:09.820Z,15.83
2019-02-06T08:11:37.295Z,16.42
2019-02-06T08:14:05.399Z,15.45
2019-02-06T08:16:32.900Z,15.90
2019-02-06T08:19:00.386Z,16.10
2019-02-06T08:21:27.859Z,15.03
2019-02-06T08:23:55.491Z,15.70
2019-02-06T08:26:23.166Z,16.47
2019-02-06T08:28:50.745Z,14.50
2019-02-06T08:31:18.342Z,14.60
2019-02-06T08:33:45.843Z,15.18
2019-02-06T08:36:13.335Z,16.60
2019-02-06T08:38:47.969Z,16.27
2019-02-06T08:41:10.033Z,14.77
2019-02-06T08:43:37.496Z,15.77
2019-02-06T08:46:04.993Z,14.97
2019-02-06T08:48:32.477Z,16.20
2019-02-06T08:50:59.947Z,16.67
2019-02-06T08:53:27.454Z,17.53
2019-02-06T08:55:54.987Z,17.10
2019-02-06T08:58:22.467Z,17.07
2019-02-06T09:00:50.232Z,16.73
2019-02-06T09:03:17.794Z,17.70
2019-02-06T09:05:45.253Z,17.30
2019-02-06T09:08:12.732Z,19.03
2019-02-06T09:10:40.297Z,17.67
2019-02-06T09:13:07.787Z,18.50
2019-02-06T09:15:35.272Z,16.70
2019-02-06T09:18:03.249Z,18.10
2019-02-06T09:20:30.730Z,18.43
2019-02-06T09:22:59.318Z,17.00
2019-02-06T09:25:27.699Z,18.07
2019-02-06T09:27:55.460Z,15.60
2019-02-06T09:30:26.716Z,18.07
2019-02-06T09:32:54.727Z,16.80
2019-02-06T09:35:22.596Z,18.73
2019-02-06T09:37:50.282Z,15.50
2019-02-06T09:40:18.979Z,17.17
2019-02-06T09:42:46.453Z,16.50
2019-02-06T09:45:15.117Z,18.00
2019-02-06T09:47:42.686Z,16.50
2019-02-06T09:50:17.607Z,18.30
2019-02-06T09:52:45.102Z,18.80
2019-02-06T09:55:12.778Z,19.00
2019-02-06T09:57:40.275Z,19.90
2019-02-06T10:00:09.288Z,19.40
2019-02-06T10:02:36.779Z,20.13
2019-02-06T10:05:06.050Z,19.87
2019-02-06T10:07:33.533Z,19.53
2019-02-06T10:10:01.059Z,20.77
2019-02-06T10:12:28.613Z,19.97
2019-02-06T10:14:56.086Z,19.27
2019-02-06T10:17:23.638Z,20.57
2019-02-06T10:19:51.116Z,19.80
2019-02-06T10:22:18.685Z,21.30
2019-02-06T10:24:46.179Z,20.97
2019-02-06T10:27:14.036Z,21.73
2019-02-06T10:29:41.577Z,19.97
2019-02-06T10:32:09.055Z,19.70
2019-02-06T10:34:36.518Z,21.17
2019-02-06T10:37:04.307Z,20.07
2019-02-06T10:39:34.551Z,20.60
2019-02-06T10:42:00.906Z,17.93
2019-02-06T10:44:29.111Z,19.57
2019-02-06T10:46:56.545Z,17.73
2019-02-06T10:49:24.017Z,15.13
2019-02-06T10:51:51.612Z,16.53
2019-02-06T10:54:19.144Z,17.20
2019-02-06T10:56:46.610Z,12.47
2019-02-06T10:59:14.094Z,14.50
2019-02-06T11:01:42.001Z,14.83
2019-02-06T11:04:09.506Z,13.13
2019-02-06T11:06:37.059Z,13.20
2019-02-06T11:09:05.920Z,11.60
2019-02-06T11:11:33.466Z,9.63
2019-02-06T11:14:00.888Z,9.10
2019-02-06T11:16:28.740Z,11.30
2019-02-06T11:18:56.268Z,9.13
2019-02-06T11:21:23.802Z,8.13
2019-02-06T11:23:51.970Z,7.80
2019-02-06T11:26:19.582Z,10.10
2019-02-06T11:28:47.035Z,9.70
2019-02-06T11:31:14.523Z,9.80
2019-02-06T11:33:41.990Z,10.10
2019-02-06T11:36:09.451Z,9.40
2019-02-06T11:38:37.068Z,9.40
2019-02-06T11:41:04.553Z,10.00
2019-02-06T11:43:32.313Z,9.10
2019-02-06T11:46:00.320Z,10.00
2019-02-06T11:48:27.848Z,9.97
2019-02-06T11:50:55.416Z,8.97
2019-02-06T11:53:23.097Z,9.07
2019-02-06T11:55:52.210Z,9.50
2019-02-06T11:58:19.697Z,8.70
2019-02-06T12:00:48.992Z,9.17
2019-02-06T12:03:16.494Z,9.10
2019-02-06T12:05:43.973Z,8.53
2019-02-06T12:08:12.643Z,10.00
2019-02-06T12:10:40.430Z,8.63
2019-02-06T12:13:08.471Z,9.23
2019-02-06T12:15:37.809Z,8.70
2019-02-06T12:18:06.003Z,8.70
2019-02-06T12:20:33.444Z,8.00
2019-02-06T12:23:00.914Z,9.73
2019-02-06T12:25:28.526Z,8.47
2019-02-06T12:27:56.597Z,7.20
2019-02-06T12:30:25.958Z,8.93
2019-02-06T12:32:53.459Z,8.20
2019-02-06T12:35:20.936Z,8.97
2019-02-06T12:37:48.582Z,8.70
2019-02-06T12:40:21.633Z,7.87
2019-02-06T12:42:45.455Z,9.27
2019-02-06T12:45:14.515Z,8.53
2019-02-06T12:47:41.992Z,7.70
2019-02-06T12:50:11.165Z,8.10
2019-02-06T12:52:38.698Z,8.47
2019-02-06T12:55:07.629Z,10.10
2019-02-06T12:57:37.439Z,8.47
2019-02-06T13:00:05.835Z,10.07
2019-02-06T13:02:33.309Z,9.60
2019-02-06T13:05:00.770Z,8.77
2019-02-06T13:07:28.663Z,8.60
2019-02-06T13:09:56.168Z,8.93
2019-02-06T13:12:23.590Z,7.90
2019-02-06T13:14:51.088Z,8.80
2019-02-06T13:17:18.609Z,9.33
2019-02-06T13:19:46.069Z,9.20
2019-02-06T13:22:13.655Z,9.57
2019-02-06T13:24:41.132Z,10.70
2019-02-06T13:27:08.601Z,8.93
2019-02-06T13:29:36.095Z,9.83
2019-02-06T13:32:03.586Z,9.00
2019-02-06T13:34:31.105Z,10.80
2019-02-06T13:36:58.599Z,8.87
2019-02-06T13:39:26.056Z,9.67
2019-02-06T13:41:53.518Z,9.70
2019-02-06T13:44:21.019Z,9.70
2019-02-06T13:46:53.149Z,9.63
2019-02-06T13:49:17.681Z,9.13
2019-02-06T13:51:45.175Z,9.70
2019-02-06T13:54:12.628Z,9.87
2019-02-06T13:56:40.099Z,10.07
2019-02-06T13:59:07.621Z,10.00
2019-02-06T14:01:35.392Z,9.70
2019-02-06T14:04:02.850Z,8.37
2019-02-06T14:06:30.327Z,8.87
2019-02-06T14:08:57.911Z,9.00
2019-02-06T14:11:25.387Z,8.97
2019-02-06T14:13:52.899Z,10.30
2019-02-06T14:16:20.377Z,10.87
2019-02-06T14:18:48.271Z,10.70
2019-02-06T14:21:15.759Z,11.83
2019-02-06T14:23:44.695Z,11.80
2019-02-06T14:26:14.225Z,14.33
2019-02-06T14:28:55.627Z,14.40
2019-02-06T14:31:28.269Z,11.33
2019-02-06T14:33:57.283Z,12.80
2019-02-06T14:36:42.745Z,13.77
2019-02-06T14:39:11.685Z,13.23
2019-02-06T14:41:43.323Z,12.83
2019-02-06T14:44:24.615Z,12.57
2019-02-06T14:46:54.080Z,13.60
2019-02-06T14:49:28.793Z,12.60
2019-02-06T14:52:15.702Z,13.37
2019-02-06T14:54:59.668Z,13.30
2019-02-06T14:57:31.323Z,13.33
2019-02-06T15:00:00.662Z,12.70
2019-02-06T15:02:32.426Z,13.40
2019-02-06T15:05:01.353Z,13.33
2019-02-06T15:07:30.292Z,13.70
2019-02-06T15:09:59.265Z,12.67
2019-02-06T15:12:28.188Z,14.30
2019-02-06T15:15:00.309Z,14.40
2019-02-06T15:17:45.845Z,12.73
2019-02-06T15:20:17.767Z,13.40
2019-02-06T15:23:03.194Z,13.23
2019-02-06T15:25:35.104Z,13.80
2019-02-06T15:28:19.361Z,12.30
2019-02-06T15:30:48.376Z,14.10
2019-02-06T15:33:20.629Z,14.00
2019-02-06T15:35:52.645Z,13.80
2019-02-06T15:38:38.691Z,13.00
2019-02-06T15:41:07.659Z,13.43
2019-02-06T15:43:46.105Z,13.90
2019-02-06T15:46:24.285Z,14.27
2019-02-06T15:49:08.208Z,15.10
2019-02-06T15:51:37.650Z,13.47
2019-02-06T15:54:06.584Z,15.00
2019-02-06T15:56:35.667Z,13.50
2019-02-06T15:59:08.202Z,15.13
2019-02-06T16:01:40.120Z,14.30
2019-02-06T16:04:19.752Z,13.80
2019-02-06T16:06:59.836Z,13.97
2019-02-06T16:09:28.773Z,12.77
2019-02-06T16:11:57.749Z,13.40
2019-02-06T16:14:35.970Z,15.67
2019-02-06T16:17:07.814Z,13.80
2019-02-06T16:20:04.652Z,13.67
2019-02-06T16:22:40.474Z,12.90
2019-02-06T16:25:09.516Z,15.20
2019-02-06T16:27:50.710Z,15.17
2019-02-06T16:30:22.924Z,15.77
2019-02-06T16:32:57.796Z,15.77
2019-02-06T16:35:43.289Z,13.50
2019-02-06T16:38:24.421Z,14.70
2019-02-06T16:40:53.431Z,14.27
2019-02-06T16:43:25.152Z,16.53
2019-02-06T16:45:54.122Z,14.03
2019-02-06T16:48:29.110Z,14.20
2019-02-06T16:50:58.038Z,14.60
2019-02-06T16:53:29.694Z,15.43
2019-02-06T16:56:07.745Z,15.10
2019-02-06T16:58:42.407Z,15.37
2019-02-06T17:01:20.612Z,13.73
2019-02-06T17:03:55.314Z,14.23
2019-02-06T17:06:42.646Z,13.93
2019-02-06T17:09:29.668Z,14.50
2019-02-06T17:12:15.441Z,14.33
2019-02-06T17:15:00.941Z,16.13
2019-02-06T17:17:32.884Z,15.73
2019-02-06T17:20:17.182Z,14.40
2019-02-06T17:22:49.161Z,13.67
2019-02-06T17:25:20.954Z,13.57
2019-02-06T17:27:52.929Z,15.70
2019-02-06T17:30:21.965Z,13.53
2019-02-06T17:32:53.714Z,13.60
2019-02-06T17:35:39.348Z,14.83
2019-02-06T17:38:11.324Z,14.20
2019-02-06T17:40:43.297Z,15.27
2019-02-06T17:43:12.359Z,14.90
2019-02-06T17:45:56.676Z,14.10
2019-02-06T17:48:44.115Z,13.70
2019-02-06T17:51:18.933Z,14.43
2019-02-06T17:53:56.641Z,15.73
2019-02-06T17:56:24.112Z,15.63
2019-02-06T17:58:51.988Z,18.50
2019-02-06T18:01:21.044Z,16.87
2019-02-06T18:03:49.016Z,14.80
2019-02-06T18:06:16.768Z,15.73
2019-02-06T18:08:44.269Z,14.60
2019-02-06T18:11:11.767Z,15.00
2019-02-06T18:13:39.300Z,15.20
2019-02-06T18:16:07.288Z,14.10
2019-02-06T18:18:34.842Z,15.23
2019-02-06T18:21:02.338Z,14.80
2019-02-06T18:23:29.912Z,15.00
2019-02-06T18:25:57.396Z,14.83
2019-02-06T18:28:25.063Z,14.20
2019-02-06T18:30:52.595Z,14.97
2019-02-06T18:33:20.137Z,15.53
2019-02-06T18:35:48.103Z,15.87
2019-02-06T18:38:15.708Z,16.43
2019-02-06T18:40:44.065Z,16.30
2019-02-06T18:43:11.595Z,16.17
2019-02-06T18:45:39.254Z,15.83
2019-02-06T18:48:07.646Z,16.53
2019-02-06T18:50:36.435Z,15.53
2019-02-06T18:53:04.531Z,15.67
2019-02-06T18:55:32.368Z,16.30
2019-02-06T18:57:59.832Z,15.60
2019-02-06T19:00:39.968Z,15.23
2019-02-06T19:03:08.988Z,14.33
2019-02-06T19:05:37.660Z,15.70
2019-02-06T19:08:05.968Z,15.40
2019-02-06T19:10:33.493Z,14.40
2019-02-06T19:13:01.273Z,15.77
2019-02-06T19:15:29.239Z,13.20
2019-02-06T19:17:56.728Z,14.97
2019-02-06T19:20:24.532Z,14.83
2019-02-06T19:22:52.455Z,15.00
2019-02-06T19:25:20.063Z,16.37
2019-02-06T19:27:47.646Z,13.30
2019-02-06T19:30:16.660Z,16.00
2019-02-06T19:32:44.547Z,14.90
2019-02-06T19:35:12.450Z,16.37
2019-02-06T19:37:40.046Z,15.23
2019-02-06T19:40:09.062Z,14.30
2019-02-06T19:42:36.554Z,15.53
2019-02-06T19:45:05.004Z,13.93
2019-02-06T19:47:32.542Z,13.40
2019-02-06T19:50:00.026Z,16.57
2019-02-06T19:52:27.540Z,15.63
2019-02-06T19:54:55.315Z,15.27
2019-02-06T19:57:22.895Z,14.97
2019-02-06T19:59:50.493Z,15.47
2019-02-06T20:02:18.434Z,16.00
2019-02-06T20:04:46.061Z,15.70
2019-02-06T20:07:13.641Z,14.40
2019-02-06T20:09:41.291Z,15.47
2019-02-06T20:12:08.908Z,15.27
2019-02-06T20:14:36.458Z,16.00
2019-02-06T20:17:04.330Z,14.90
2019-02-06T20:19:31.933Z,17.37
2019-02-06T20:21:59.405Z,17.70
2019-02-06T20:24:26.964Z,16.57
2019-02-06T20:26:54.455Z,17.70
2019-02-06T20:29:22.015Z,16.07
2019-02-06T20:31:49.489Z,17.10
2019-02-06T20:34:17.069Z,15.87
2019-02-06T20:36:44.917Z,16.60
2019-02-06T20:39:12.548Z,16.00
2019-02-06T20:41:40.113Z,15.90
2019-02-06T20:44:07.603Z,18.30
2019-02-06T20:46:35.120Z,15.70
2019-02-06T20:49:02.608Z,15.40
2019-02-06T20:51:30.076Z,13.77
2019-02-06T20:53:57.744Z,14.43
2019-02-06T20:56:25.822Z,14.40
2019-02-06T20:58:53.409Z,13.13
2019-02-06T21:01:20.991Z,14.20
2019-02-06T21:03:48.470Z,14.90
2019-02-06T21:06:16.016Z,15.07
2019-02-06T21:08:43.624Z,13.67
2019-02-06T21:11:11.108Z,14.10
2019-02-06T21:13:38.596Z,13.57
2019-02-06T21:16:06.480Z,13.30
2019-02-06T21:18:34.022Z,16.00
2019-02-06T21:21:01.562Z,17.33
2019-02-06T21:23:29.063Z,15.17
2019-02-06T21:25:56.601Z,15.90
2019-02-06T21:28:24.091Z,17.12
2019-02-06T21:30:51.776Z,16.87
2019-02-06T21:33:19.746Z,15.70
2019-02-06T21:35:47.285Z,14.40
2019-02-06T21:38:14.862Z,15.70
2019-02-06T21:40:42.288Z,15.53
2019-02-06T21:43:09.875Z,16.20
2019-02-06T21:45:38.342Z,19.15
2019-02-06T21:48:06.276Z,16.53
2019-02-06T21:50:34.244Z,17.52
2019-02-06T21:53:01.759Z,18.23
2019-02-06T21:55:29.350Z,16.45
2019-02-06T21:57:56.833Z,17.00
2019-02-06T22:00:25.883Z,16.42
2019-02-06T22:02:53.379Z,17.45
2019-02-06T22:05:20.955Z,17.82
2019-02-06T22:07:48.909Z,18.42
2019-02-06T22:10:17.864Z,17.15
2019-02-06T22:12:45.407Z,17.70
2019-02-06T22:15:17.396Z,18.90
2019-02-06T22:17:44.870Z,19.00
2019-02-06T22:20:12.673Z,20.35
2019-02-06T22:22:42.901Z,19.00
2019-02-06T22:25:09.940Z,18.07
2019-02-06T22:27:37.418Z,17.57
2019-02-06T22:30:06.388Z,17.87
2019-02-06T22:32:33.908Z,17.05
2019-02-06T22:35:01.397Z,18.25
2019-02-06T22:37:28.934Z,17.95
2019-02-06T22:39:56.753Z,17.23
2019-02-06T22:42:24.312Z,16.95
2019-02-06T22:44:51.876Z,18.23
2019-02-06T22:47:19.377Z,17.62
2019-02-06T22:49:46.865Z,17.67
2019-02-06T22:52:14.856Z,17.20
2019-02-06T22:54:42.361Z,17.90
2019-02-06T22:57:10.160Z,18.55
2019-02-06T22:59:37.635Z,17.80
2019-02-06T23:02:05.643Z,15.75
2019-02-06T23:04:33.148Z,16.10
2019-02-06T23:07:00.608Z,17.25
2019-02-06T23:09:28.136Z,16.80
2019-02-06T23:11:55.639Z,17.80
2019-02-06T23:14:23.619Z,17.55
2019-02-06T23:16:51.132Z,17.90
2019-02-06T23:19:18.625Z,19.32
2019-02-06T23:21:46.109Z,17.77
2019-02-06T23:24:13.675Z,17.57
2019-02-06T23:26:41.195Z,17.85
2019-02-06T23:29:08.681Z,17.23
2019-02-06T23:31:36.641Z,18.90
2019-02-06T23:34:04.354Z,17.07
2019-02-06T23:36:31.915Z,16.85
2019-02-06T23:38:59.496Z,16.65
2019-02-06T23:41:26.999Z,17.15
2019-02-06T23:43:54.568Z,19.02
2019-02-06T23:46:22.058Z,17.60
2019-02-06T23:48:49.870Z,17.42
2019-02-06T23:51:17.420Z,17.95
2019-02-06T23:53:45.040Z,16.57
2019-02-06T23:56:12.567Z,17.95
2019-02-06T23:58:40.127Z,17.90
